Commit Graph

591 Commits

Author SHA1 Message Date
Yurii a5996cc93d refactor: rounding sensor values 2024-11-15 01:28:28 +03:00
Yurii 9d6b6c18ab fix: pub network.rssi 2024-11-15 01:18:45 +03:00
Yurii e6119dc7ee refactor: restart action improved 2024-11-15 00:55:38 +03:00
Yurii 19feb85230 refactor: some changes 2024-11-15 00:25:41 +03:00
Yurii 0d71a674b6 feat: added more OT polled IDs & reformat code
* ID79 - exhaust CO2
* ID84 - exhaust fan speed
* ID85 - supply fan speed
* ID29 - solar storage temp
* ID30 - solar collector temp
* ID35 - boiler fan speed setpoint & actual
2024-11-14 23:02:46 +03:00
Yurii 34eabca64a refactor: improved web cache 2024-11-14 22:30:34 +03:00
Yurii d3b28c5bfb fix: building without BLE fixed 2024-11-13 12:11:36 +03:00
Yurii 640935a2b7 refactor: improved updating OT sensors 2024-11-13 01:00:04 +03:00
Yurii c0c631aab4 fix: added `step to HA entities for Sensors::Type::MANUAL` 2024-11-13 00:58:28 +03:00
Yurii 861db33765 feat: added signal quality for DALLAS sensors 2024-11-13 00:57:01 +03:00
Yurii b91266063b refactor: imporved updating OT sensors 2024-11-12 19:47:56 +03:00
Yurii b087e6e6d3 refactor: some changes 2024-11-12 15:26:28 +03:00
Yurii b205f14bae refactor: impoved sensors settings page 2024-11-12 15:25:58 +03:00
Yurii 7482eb8898 refactor: added {BUILD_TIME} in path js and css files 2024-11-12 11:44:02 +03:00
Yurii 2ff84cbddf fix: update target heating temp when restoring settings 2024-11-12 11:42:48 +03:00
Yurii 8b6e6be670 fix: display of current heating temp on dashboard 2024-11-12 11:37:09 +03:00
Yurii 636872f72d refactor: some fixes 2024-11-12 10:48:29 +03:00
Yurii c6df74f06e refactor: optimizations & fixes 2024-11-11 15:45:36 +03:00
Yurii 24a46f4c16 fix: unit of dhw flow rate fixed 2024-11-11 13:52:15 +03:00
Yurii ddc9cf7c90 fix: fix typos in settings page 2024-11-11 13:32:36 +03:00
Yurii 2d74d0c0ad refactor: gpio 17 (A0) is valid for ESP8266 2024-11-11 12:59:35 +03:00
Yurii e04462811b refactor: improved NTC polling 2024-11-11 12:56:18 +03:00
Yurii 99d82657c0 fix: restore settings on portal fixed 2024-11-11 12:54:23 +03:00
Yurii ed50208546 feat: added will msg for mqtt broker 2024-11-11 09:29:19 +03:00
Yurii fda18cdb13 refactor: memory optimization for esp8266 2024-11-11 02:41:39 +03:00
Yurii 6a9bd9673a fix: `Sensors::cleanDallasInstances()` fixed 2024-11-10 01:32:42 +03:00
Yurii 5aea80e630 fix: fix typos 2024-11-10 01:30:28 +03:00
Yurii fcf7d61ca5 fix: polling ntc on esp8266 fixed 2024-11-09 17:41:39 +03:00
Yurii e71f3868fd refactor: dynamic sensors 2024-11-09 17:10:26 +03:00
Yurii c3d0d94806 fix; fix typo 2024-11-01 12:49:35 +03:00
Yurii e4211c872c fix: hysteresis with native heating control has been fixed 2024-11-01 12:47:32 +03:00
Yurii 467cfea449 feat: ability to use return heat carrier temp as indoor temp 2024-11-01 04:16:50 +03:00
Yurii 0e3473e065 fix: fix typo 2024-11-01 04:10:56 +03:00
Yurii 8780e5245a fix: for some HA entities added missing parameter enabled_by_default 2024-11-01 03:33:35 +03:00
Yurii 94e8288d76 feat: added entities to HA: connected, rssi, battery, humidity for indoor and outdoor sensors; some entities are disabled by default 2024-11-01 02:36:45 +03:00
Yurii 261a53207c refactor: improved turbo mode 2024-10-31 22:35:23 +03:00
Yurii 1dbc895cdb refactor: increased delay before sending data to MQTT after connection 2024-10-31 22:33:11 +03:00
Yurii 747d8841bc refactor: removed resetting modulation and power if response not valid 2024-10-31 22:30:37 +03:00
Yurii 7ed47a4eca chore: updated equitherm calculator 2024-10-31 22:29:04 +03:00
Yurii 0ccea290cb fix: try to auto determine the min boiler power 2024-10-31 05:29:24 +03:00
Yurii c03df67900 fix: fixed crash if BLE service not found #88 2024-10-31 05:25:34 +03:00
Yurii f86857c279 feat: improved turbo mode
- added turbo factor parameter
- implemented turbo mode for PID
2024-10-31 05:22:41 +03:00
Yurii acd8348a5b feat: try to auto determine the min boiler power 2024-10-31 03:49:00 +03:00
Yurii cdde3c30af chore: fix typos 2024-10-31 02:42:46 +03:00
Yurii 392242ef3e refactor: vendor list updated 2024-10-31 01:36:50 +03:00
Yurii a6e8953807 refactor: reworked emergency mode; reworked hysteresis algorithm; improved detection of connection state for MANUAL & BOILER type sensors 2024-10-31 01:36:21 +03:00
Yurii 11b1277d79 refactor: added ID validation for opentherm response 2024-10-27 04:33:46 +03:00
Yurii f62e687d3f fix: fixed pressure and flow validation when using correction 2024-10-27 04:31:35 +03:00
Yurii 42fa95969f fix: compilation on windows fixed for C3, C6 2024-10-27 03:36:18 +03:00
Yurii 56a0d1322f fix: display of fault code and diag code in logs fixed 2024-10-26 21:37:23 +03:00